Time;durP1;ratioP1;P1;durP2;ratioP2;P2;SDS_P1;SDS_P2;PMS_P1;PMS_P2;Temp;Humidity;BMP_temperature;BMP_pressure;BME280_temperature;BME280_humidity;BME280_pressure;Samples;Min_cycle;Max_cycle;Signal;HPM_P1;HPM_P2
2023/03/16 00:01:05;;;;;;;9.67;8.77;;;1.30;99.90;;;;;;5019769;28;20445;-47
2023/03/16 00:03:31;;;;;;;10.17;9.13;;;1.20;99.90;;;;;;5019974;28;20277;-50
2023/03/16 00:05:57;;;;;;;10.53;8.33;;;1.20;99.90;;;;;;5019674;28;20529;-49
2023/03/16 00:08:23;;;;;;;11.03;8.50;;;1.10;99.90;;;;;;5019075;28;20417;-46
2023/03/16 00:10:48;;;;;;;9.10;8.13;;;1.20;99.90;;;;;;5019472;28;20210;-45
2023/03/16 00:13:18;;;;;;;10.20;8.90;;;1.10;99.90;;;;;;5019399;28;20361;-46
2023/03/16 00:15:55;;;;;;;11.50;8.73;;;1.10;99.90;;;;;;5018950;28;20171;-47
2023/03/16 00:18:25;;;;;;;9.80;7.97;;;1.00;99.90;;;;;;5019166;28;20509;-45
2023/03/16 00:20:54;;;;;;;9.83;8.93;;;1.00;99.90;;;;;;5018511;28;20552;-45
2023/03/16 00:23:25;;;;;;;10.07;9.07;;;1.00;99.90;;;;;;5018024;28;20483;-44
2023/03/16 00:25:52;;;;;;;9.07;8.17;;;0.90;99.90;;;;;;5018033;28;20418;-46
2023/03/16 00:28:18;;;;;;;10.17;8.80;;;0.90;99.90;;;;;;5017124;28;20417;-46
2023/03/16 00:30:46;;;;;;;9.60;8.70;;;0.90;99.90;;;;;;5018376;28;20945;-46
2023/03/16 00:33:12;;;;;;;10.60;9.50;;;0.90;99.90;;;;;;5018386;28;20234;-44
2023/03/16 00:35:38;;;;;;;10.80;9.80;;;0.80;99.90;;;;;;5017945;28;20422;-44
2023/03/16 00:38:03;;;;;;;9.23;8.43;;;0.80;99.90;;;;;;5017261;28;20406;-46
2023/03/16 00:40:29;;;;;;;10.73;9.77;;;0.80;99.90;;;;;;5018119;28;20550;-45
2023/03/16 00:42:55;;;;;;;11.83;10.10;;;0.70;99.90;;;;;;5018979;28;20254;-48
2023/03/16 00:45:22;;;;;;;13.37;11.83;;;0.70;99.90;;;;;;5018224;28;20212;-45
2023/03/16 00:47:48;;;;;;;12.50;11.30;;;0.70;99.90;;;;;;5018718;28;20789;-45
2023/03/16 00:50:14;;;;;;;13.27;11.90;;;0.60;99.90;;;;;;5018519;28;20522;-44
2023/03/16 00:52:41;;;;;;;15.63;12.10;;;0.60;99.90;;;;;;5016993;28;20501;-47
2023/03/16 00:55:07;;;;;;;13.37;12.00;;;0.60;99.90;;;;;;5017200;28;20817;-46
2023/03/16 00:57:33;;;;;;;13.70;12.20;;;0.60;99.90;;;;;;5018783;28;20512;-50
2023/03/16 01:00:01;;;;;;;13.77;12.20;;;0.60;99.90;;;;;;5018689;28;20739;-45
2023/03/16 01:02:26;;;;;;;12.87;11.67;;;0.60;99.90;;;;;;5017232;28;20422;-46
2023/03/16 01:04:53;;;;;;;12.80;11.50;;;0.60;99.90;;;;;;5018023;28;20850;-47
2023/03/16 01:07:20;;;;;;;13.67;12.20;;;0.60;99.90;;;;;;5017278;28;20318;-47
2023/03/16 01:09:46;;;;;;;12.70;11.40;;;0.60;99.90;;;;;;5017504;28;20426;-49
2023/03/16 01:12:15;;;;;;;9.70;8.27;;;0.60;99.90;;;;;;5017256;28;20458;-45
2023/03/16 01:14:40;;;;;;;17.67;15.87;;;1.20;1.00;;;;;;5018088;28;20168;-45
2023/03/16 01:17:08;;;;;;;17.67;15.87;;;2.00;1.00;;;;;;5017821;28;20733;-45
2023/03/16 01:19:35;;;;;;;19.83;14.27;;;2.20;1.00;;;;;;5016897;28;20202;-46
2023/03/16 01:22:03;;;;;;;13.40;12.10;;;2.10;1.00;;;;;;5017248;28;20883;-44
2023/03/16 01:24:28;;;;;;;12.47;11.27;;;1.80;1.00;;;;;;5017072;28;20437;-45
2023/03/16 01:26:54;;;;;;;12.83;11.63;;;1.60;1.00;;;;;;5018192;28;20418;-45
2023/03/16 01:29:20;;;;;;;13.53;10.60;;;1.40;99.90;;;;;;5017668;28;20513;-45
2023/03/16 01:31:48;;;;;;;12.87;11.33;;;1.30;99.90;;;;;;5016328;28;20274;-47
2023/03/16 01:34:16;;;;;;;13.77;12.37;;;1.10;99.90;;;;;;5017237;28;20429;-45
2023/03/16 01:36:43;;;;;;;12.13;11.03;;;1.00;99.90;;;;;;5017311;28;20418;-44
2023/03/16 01:39:10;;;;;;;13.90;12.50;;;0.90;99.90;;;;;;5016885;28;20426;-43
2023/03/16 01:41:37;;;;;;;12.60;11.10;;;0.80;99.90;;;;;;5016985;28;20433;-48
2023/03/16 01:44:03;;;;;;;11.70;10.67;;;0.70;99.90;;;;;;5017513;28;20438;-44
2023/03/16 01:46:29;;;;;;;14.80;13.30;;;0.70;99.90;;;;;;5016662;28;20441;-45
2023/03/16 01:49:04;;;;;;;16.13;14.53;;;0.70;99.90;;;;;;5017894;28;20426;-46
2023/03/16 01:51:57;;;;;;;18.47;16.57;;;0.70;99.90;;;;;;5017083;28;20736;-45
2023/03/16 01:54:27;;;;;;;18.07;15.83;;;0.70;99.90;;;;;;5017928;28;20436;-46
2023/03/16 01:56:57;;;;;;;17.53;15.67;;;0.70;99.90;;;;;;5017398;28;20469;-47
2023/03/16 01:59:30;;;;;;;17.80;16.10;;;0.70;99.90;;;;;;5017345;28;20457;-48
2023/03/16 02:01:57;;;;;;;17.87;15.97;;;0.70;1.00;;;;;;5017697;28;20673;-45
2023/03/16 02:04:26;;;;;;;18.53;16.00;;;0.70;1.00;;;;;;5017285;28;20986;-45
2023/03/16 02:06:53;;;;;;;17.43;15.30;;;0.70;1.00;;;;;;5014474;28;20700;-45
2023/03/16 02:09:19;;;;;;;20.97;18.87;;;0.70;1.00;;;;;;5015928;28;20434;-46
2023/03/16 02:11:45;;;;;;;20.47;18.57;;;0.70;1.00;;;;;;5015148;28;20833;-46
2023/03/16 02:14:11;;;;;;;20.53;17.43;;;0.70;1.00;;;;;;5016492;28;20473;-47
2023/03/16 02:16:37;;;;;;;17.87;16.17;;;0.60;1.00;;;;;;5014956;28;20437;-44
2023/03/16 02:19:07;;;;;;;18.03;16.23;;;0.60;1.00;;;;;;5014294;28;20509;-47
2023/03/16 02:21:45;;;;;;;18.87;16.20;;;0.60;1.00;;;;;;5016245;28;20497;-45
2023/03/16 02:24:10;;;;;;;17.87;15.53;;;0.60;1.00;;;;;;5014137;28;20434;-44
2023/03/16 02:26:46;;;;;;;17.83;15.40;;;0.60;1.00;;;;;;5013138;28;20449;-45
2023/03/16 02:29:43;;;;;;;18.87;15.10;;;0.60;1.00;;;;;;5014168;28;20183;-47
2023/03/16 02:32:09;;;;;;;17.80;15.63;;;0.60;1.00;;;;;;5016118;28;20492;-48
2023/03/16 02:34:35;;;;;;;17.77;14.90;;;0.60;1.00;;;;;;5015736;28;20774;-47
2023/03/16 02:37:01;;;;;;;20.93;15.67;;;0.70;1.00;;;;;;5014813;28;20410;-46
2023/03/16 02:39:27;;;;;;;16.53;14.57;;;0.60;1.00;;;;;;5015412;28;20616;-49
2023/03/16 02:41:52;;;;;;;15.70;13.67;;;0.60;1.00;;;;;;5015770;28;20454;-46
2023/03/16 02:44:28;;;;;;;14.93;13.43;;;0.70;1.00;;;;;;5015669;28;20444;-44
2023/03/16 02:46:56;;;;;;;19.13;13.87;;;0.70;1.00;;;;;;5016070;28;20422;-44
2023/03/16 02:49:37;;;;;;;17.80;15.60;;;0.70;1.00;;;;;;5015633;28;20485;-44
2023/03/16 02:52:07;;;;;;;15.90;14.20;;;0.60;1.00;;;;;;5015074;28;20520;-45
2023/03/16 02:54:33;;;;;;;16.57;14.80;;;0.60;1.00;;;;;;5016953;28;20430;-45
2023/03/16 03:00:20;;;;;;;21.13;18.03;;;0.50;1.00;;;;;;5016534;28;20467;-48
2023/03/16 03:02:46;;;;;;;18.17;16.33;;;0.50;1.00;;;;;;5016583;28;20418;-47
2023/03/16 03:05:12;;;;;;;18.40;16.40;;;0.40;1.00;;;;;;5015671;28;20420;-45
2023/03/16 03:07:38;;;;;;;18.47;16.50;;;0.40;1.00;;;;;;5015504;28;20175;-48
2023/03/16 03:10:05;;;;;;;17.80;15.90;;;0.40;1.00;;;;;;5016229;28;20435;-48
2023/03/16 03:12:32;;;;;;;16.63;14.93;;;0.40;1.00;;;;;;5016493;28;20426;-47
2023/03/16 03:14:58;;;;;;;17.40;15.70;;;0.40;1.00;;;;;;5017268;28;20888;-46
2023/03/16 03:17:28;;;;;;;17.03;15.03;;;0.40;1.00;;;;;;5020419;28;20453;-45
2023/03/16 03:19:56;;;;;;;20.13;18.03;;;0.40;1.00;;;;;;5020330;28;20175;-44
2023/03/16 03:22:32;;;;;;;17.13;15.37;;;0.40;1.00;;;;;;5018950;28;20499;-49
2023/03/16 03:24:58;;;;;;;18.90;16.60;;;0.30;99.90;;;;;;5019224;28;20808;-47
2023/03/16 03:27:24;;;;;;;18.07;16.03;;;0.30;99.90;;;;;;5019297;28;20509;-44
2023/03/16 03:29:49;;;;;;;19.03;16.90;;;0.30;99.90;;;;;;5019630;28;20477;-44
2023/03/16 03:32:15;;;;;;;18.63;16.63;;;0.30;99.90;;;;;;5020621;28;20234;-46
2023/03/16 03:34:41;;;;;;;21.80;16.83;;;0.30;99.90;;;;;;5019463;28;20171;-44
2023/03/16 03:37:07;;;;;;;22.83;17.97;;;0.30;99.90;;;;;;5022650;28;20178;-46
2023/03/16 03:39:33;;;;;;;22.03;16.17;;;0.30;99.90;;;;;;5039868;28;20440;-44
2023/03/16 03:41:58;;;;;;;19.47;17.50;;;0.20;99.90;;;;;;5040229;28;20437;-44
2023/03/16 03:44:25;;;;;;;20.30;17.80;;;0.20;99.90;;;;;;5040137;28;20193;-48
2023/03/16 03:46:51;;;;;;;19.10;17.00;;;0.20;99.90;;;;;;5039646;28;20597;-47
2023/03/16 03:49:17;;;;;;;18.00;16.20;;;0.20;99.90;;;;;;5039377;28;20428;-45
2023/03/16 03:51:43;;;;;;;17.90;16.00;;;0.10;99.90;;;;;;5038526;28;20437;-46
2023/03/16 03:54:09;;;;;;;24.70;15.83;;;0.10;99.90;;;;;;5038977;28;20182;-45
2023/03/16 03:56:35;;;;;;;17.07;15.37;;;0.10;99.90;;;;;;5037614;28;20430;-48
2023/03/16 03:59:00;;;;;;;16.93;15.23;;;0.20;99.90;;;;;;5037674;28;20750;-44
2023/03/16 04:01:26;;;;;;;20.63;17.50;;;0.10;99.90;;;;;;5037975;28;20189;-45
2023/03/16 04:03:52;;;;;;;22.30;20.07;;;0.10;99.90;;;;;;5038120;28;20182;-44
2023/03/16 04:06:17;;;;;;;27.47;22.20;;;0.10;99.90;;;;;;5037869;28;20186;-44
2023/03/16 04:08:43;;;;;;;19.90;16.90;;;0.10;99.90;;;;;;5038211;28;20197;-45
2023/03/16 04:11:10;;;;;;;22.13;17.77;;;0.00;99.90;;;;;;5038495;28;20225;-44
2023/03/16 04:13:36;;;;;;;18.87;16.13;;;0.00;99.90;;;;;;5038087;28;20183;-46
2023/03/16 04:16:02;;;;;;;18.60;16.70;;;0.00;99.90;;;;;;5037487;28;20482;-45
2023/03/16 04:18:28;;;;;;;19.40;15.87;;;0.00;99.90;;;;;;5037503;28;20182;-44
2023/03/16 04:20:54;;;;;;;19.73;16.70;;;0.00;99.90;;;;;;5038421;28;20273;-46
2023/03/16 04:23:20;;;;;;;23.17;19.93;;;0.00;99.90;;;;;;5037751;28;20536;-46
2023/03/16 04:25:47;;;;;;;24.33;18.40;;;0.00;99.90;;;;;;5038591;28;20277;-45
2023/03/16 04:28:16;;;;;;;22.47;17.50;;;-0.10;99.90;;;;;;5037199;28;20769;-45
2023/03/16 04:30:42;;;;;;;22.53;18.73;;;-0.10;99.90;;;;;;5036420;28;20807;-48
2023/03/16 04:33:08;;;;;;;22.47;18.13;;;-0.10;99.90;;;;;;5037366;28;20571;-47
2023/03/16 04:35:33;;;;;;;23.90;17.33;;;-0.10;99.90;;;;;;5036836;28;20178;-46
2023/03/16 04:38:01;;;;;;;22.73;17.43;;;-0.10;99.90;;;;;;5037063;28;20163;-45
2023/03/16 04:40:26;;;;;;;22.43;17.30;;;-0.10;99.90;;;;;;5036939;28;20186;-46
2023/03/16 04:42:52;;;;;;;21.53;18.20;;;-0.10;99.90;;;;;;5037601;28;20699;-45
2023/03/16 04:45:18;;;;;;;24.40;16.63;;;-0.10;99.90;;;;;;5037120;28;20495;-45
2023/03/16 04:47:43;;;;;;;19.63;16.50;;;-0.20;99.90;;;;;;5037184;28;20470;-44
2023/03/16 04:50:11;;;;;;;19.13;16.63;;;-0.20;99.90;;;;;;5036357;28;20202;-45
2023/03/16 04:52:37;;;;;;;17.67;14.83;;;-0.20;99.90;;;;;;5035884;28;20169;-46
2023/03/16 04:55:03;;;;;;;19.57;16.77;;;-0.20;99.90;;;;;;5035978;28;20724;-46
2023/03/16 04:57:29;;;;;;;19.17;15.50;;;-0.20;99.90;;;;;;5036214;28;20421;-44
2023/03/16 04:59:55;;;;;;;21.30;17.13;;;-0.30;99.90;;;;;;5036508;28;20416;-45
2023/03/16 05:02:21;;;;;;;17.83;16.00;;;-0.20;99.90;;;;;;5034184;28;20821;-44
2023/03/16 05:04:47;;;;;;;18.37;16.37;;;-0.30;99.90;;;;;;5032451;28;20433;-46
2023/03/16 05:07:13;;;;;;;17.40;15.60;;;-0.20;99.90;;;;;;5036926;28;20433;-44
2023/03/16 05:09:40;;;;;;;19.10;15.60;;;-0.30;99.90;;;;;;5036969;28;20491;-45
2023/03/16 05:12:07;;;;;;;18.43;15.63;;;-0.30;99.90;;;;;;5037640;28;20977;-44
2023/03/16 05:14:34;;;;;;;16.67;14.90;;;-0.30;99.90;;;;;;5036570;28;20409;-45
2023/03/16 05:17:02;;;;;;;16.30;14.57;;;-0.40;99.90;;;;;;5034861;28;20620;-44
2023/03/16 05:19:29;;;;;;;17.57;15.73;;;-0.30;99.90;;;;;;5037516;28;20420;-48
2023/03/16 05:21:55;;;;;;;18.73;15.57;;;-0.30;99.90;;;;;;5037427;28;20503;-47
2023/03/16 05:24:22;;;;;;;16.50;14.80;;;-0.40;99.90;;;;;;5037441;28;20512;-46
2023/03/16 05:26:48;;;;;;;16.23;14.63;;;-0.40;99.90;;;;;;5037377;28;20437;-47
2023/03/16 05:29:14;;;;;;;16.67;14.93;;;-0.40;99.90;;;;;;5037488;28;20424;-44
2023/03/16 05:31:39;;;;;;;16.13;14.53;;;-0.40;99.90;;;;;;5037183;28;20245;-44
2023/03/16 05:34:05;;;;;;;15.47;13.87;;;-0.40;99.90;;;;;;5037262;28;20481;-44
2023/03/16 05:36:31;;;;;;;18.37;15.47;;;-0.40;99.90;;;;;;5035444;28;20205;-46
2023/03/16 05:38:58;;;;;;;24.17;16.97;;;-0.40;99.90;;;;;;5035953;28;20174;-48
2023/03/16 05:41:23;;;;;;;17.10;15.13;;;-0.40;99.90;;;;;;5036618;28;20431;-46
2023/03/16 05:43:49;;;;;;;19.50;16.53;;;-0.40;99.90;;;;;;5035199;28;20512;-47
2023/03/16 05:46:15;;;;;;;15.70;14.10;;;-0.40;99.90;;;;;;5033402;28;20190;-47
2023/03/16 05:48:40;;;;;;;17.63;15.83;;;-0.40;99.90;;;;;;5033671;28;20174;-45
2023/03/16 05:51:06;;;;;;;17.90;16.00;;;-0.40;99.90;;;;;;5033233;28;20612;-46
2023/03/16 05:53:32;;;;;;;19.73;16.53;;;-0.40;99.90;;;;;;5033270;28;20252;-46
2023/03/16 05:55:58;;;;;;;22.07;16.97;;;-0.40;99.90;;;;;;5033219;28;20248;-45
2023/03/16 05:58:24;;;;;;;21.53;16.40;;;-0.30;99.90;;;;;;5032912;28;20413;-44
2023/03/16 06:00:49;;;;;;;20.33;16.30;;;-0.30;99.90;;;;;;5033737;28;20763;-44
2023/03/16 06:03:16;;;;;;;19.20;16.27;;;-0.30;99.90;;;;;;5033482;28;20179;-45
2023/03/16 06:05:42;;;;;;;18.20;16.30;;;-0.20;99.90;;;;;;5034044;28;20638;-44
2023/03/16 06:08:08;;;;;;;20.83;17.17;;;-0.20;99.90;;;;;;5033234;28;20417;-43
2023/03/16 06:10:34;;;;;;;19.13;16.87;;;-0.10;99.90;;;;;;5029877;28;20567;-47
2023/03/16 06:13:00;;;;;;;18.20;16.30;;;-0.10;99.90;;;;;;5033386;28;20431;-47
2023/03/16 06:15:29;;;;;;;18.73;16.50;;;0.00;99.90;;;;;;5032439;28;20437;-46
2023/03/16 06:17:55;;;;;;;18.60;16.37;;;0.00;99.90;;;;;;5032128;28;20482;-48
2023/03/16 06:20:20;;;;;;;25.23;17.93;;;0.00;99.90;;;;;;5032439;28;20417;-47
2023/03/16 06:22:46;;;;;;;17.30;15.30;;;0.20;99.90;;;;;;5031583;28;20427;-47
2023/03/16 06:25:13;;;;;;;18.80;15.93;;;0.30;99.90;;;;;;5033920;28;20175;-45
2023/03/16 06:27:39;;;;;;;20.43;17.00;;;0.40;99.90;;;;;;5034690;28;20177;-46
2023/03/16 06:30:07;;;;;;;19.17;16.53;;;0.40;99.90;;;;;;5014060;28;21472;-43
2023/03/16 06:32:34;;;;;;;19.83;17.37;;;0.50;99.90;;;;;;5031188;28;20461;-43
2023/03/16 06:35:01;;;;;;;22.17;17.67;;;0.60;99.90;;;;;;5033040;28;20402;-43
2023/03/16 06:37:28;;;;;;;19.90;17.80;;;0.80;99.90;;;;;;5033014;28;20457;-44
2023/03/16 06:39:53;;;;;;;20.40;17.67;;;1.00;99.90;;;;;;5032391;28;20852;-44
2023/03/16 06:42:19;;;;;;;19.60;17.00;;;1.20;99.90;;;;;;5034904;28;20520;-45
2023/03/16 06:44:45;;;;;;;19.43;16.37;;;1.50;99.90;;;;;;5032491;28;20204;-44
2023/03/16 06:47:11;;;;;;;20.53;15.63;;;1.80;99.90;;;;;;5031230;28;20572;-45
2023/03/16 06:49:36;;;;;;;19.50;16.47;;;2.00;1.00;;;;;;5027847;28;20493;-46
2023/03/16 06:52:02;;;;;;;17.90;16.00;;;2.30;1.00;;;;;;5030900;28;20539;-49
2023/03/16 06:54:31;;;;;;;19.33;15.50;;;2.50;1.00;;;;;;5029946;28;20221;-44
2023/03/16 06:56:57;;;;;;;20.10;16.80;;;2.80;99.90;;;;;;5027523;28;20700;-46
2023/03/16 06:59:22;;;;;;;16.47;14.87;;;3.00;5.40;;;;;;5029916;28;20799;-46
2023/03/16 07:01:49;;;;;;;17.87;15.97;;;3.20;1.00;;;;;;5030369;28;20421;-44
2023/03/16 07:04:15;;;;;;;15.40;13.80;;;3.40;1.00;;;;;;5030889;28;20537;-45
2023/03/16 07:06:40;;;;;;;17.73;14.53;;;3.50;1.00;;;;;;5030549;28;20425;-46
2023/03/16 07:09:06;;;;;;;16.17;14.40;;;3.60;1.00;;;;;;5031112;28;20494;-46
2023/03/16 07:11:32;;;;;;;16.00;14.40;;;3.80;99.90;;;;;;5031721;28;20287;-47
2023/03/16 07:13:58;;;;;;;16.10;14.40;;;3.90;1.00;;;;;;5032562;28;20167;-46
2023/03/16 07:16:24;;;;;;;14.30;12.90;;;4.20;1.00;;;;;;5031918;28;20480;-44
2023/03/16 07:18:51;;;;;;;15.20;13.33;;;4.50;99.90;;;;;;5032253;28;20532;-45
2023/03/16 07:21:17;;;;;;;17.40;13.20;;;4.90;99.90;;;;;;5033597;28;20432;-46
2023/03/16 07:23:43;;;;;;;14.47;13.07;;;5.20;99.90;;;;;;5033014;28;20960;-48
2023/03/16 07:26:10;;;;;;;14.33;12.93;;;5.50;1.00;;;;;;5030304;28;20859;-44
2023/03/16 07:28:37;;;;;;;13.17;11.87;;;5.80;14.20;;;;;;5030449;28;20496;-48
2023/03/16 07:31:04;;;;;;;13.80;11.80;;;6.10;1.00;;;;;;5030561;28;20503;-46
2023/03/16 07:33:32;;;;;;;13.67;12.20;;;6.30;99.90;;;;;;5031128;28;20517;-44
2023/03/16 07:35:57;;;;;;;11.90;10.73;;;6.40;1.00;;;;;;5030108;28;20842;-46
2023/03/16 07:38:23;;;;;;;14.30;11.10;;;6.60;25.70;;;;;;5029920;28;20486;-45
2023/03/16 07:40:51;;;;;;;12.07;10.90;;;6.90;1.00;;;;;;5031486;28;20186;-45
2023/03/16 07:43:17;;;;;;;11.13;9.90;;;7.40;99.90;;;;;;5030269;28;20338;-45
2023/03/16 07:45:48;;;;;;;11.93;10.27;;;8.10;99.90;;;;;;5015409;28;20447;-46
2023/03/16 07:48:14;;;;;;;11.80;10.67;;;8.40;99.00;;;;;;5033063;28;20432;-48
2023/03/16 07:50:40;;;;;;;9.90;9.00;;;9.20;60.80;;;;;;5016000;28;20472;-46
2023/03/16 07:53:06;;;;;;;11.50;10.30;;;9.90;1.00;;;;;;5030512;28;20211;-45
2023/03/16 07:55:35;;;;;;;10.20;9.20;;;10.40;1.00;;;;;;5031320;28;20647;-48
2023/03/16 07:58:01;;;;;;;9.80;9.00;;;10.80;1.00;;;;;;5016542;28;20452;-46
2023/03/16 08:00:27;;;;;;;12.00;10.60;;;11.00;1.00;;;;;;5033102;28;20531;-44
2023/03/16 08:02:55;;;;;;;10.27;9.20;;;11.10;1.00;;;;;;5035585;28;20558;-47
2023/03/16 08:05:20;;;;;;;10.40;9.40;;;11.20;1.00;;;;;;5036614;28;20843;-44
2023/03/16 08:07:46;;;;;;;10.20;9.20;;;11.40;1.00;;;;;;5036978;28;20444;-47
2023/03/16 08:10:12;;;;;;;10.57;9.57;;;11.60;1.00;;;;;;5034047;28;20505;-45
2023/03/16 08:12:38;;;;;;;10.33;9.33;;;11.90;1.00;;;;;;5036938;28;20194;-48
2023/03/16 08:15:04;;;;;;;10.27;9.27;;;12.40;1.00;;;;;;5037725;28;20448;-47
2023/03/16 08:17:30;;;;;;;10.07;8.90;;;12.80;1.00;;;;;;5035977;28;20193;-45
2023/03/16 08:19:56;;;;;;;9.00;8.20;;;12.90;1.00;;;;;;5034848;28;20424;-45
2023/03/16 08:22:23;;;;;;;10.93;9.70;;;12.90;1.00;;;;;;5036720;28;20854;-45
2023/03/16 08:24:49;;;;;;;9.20;8.40;;;12.90;1.00;;;;;;5035033;28;20181;-43
2023/03/16 08:27:15;;;;;;;10.50;9.40;;;13.00;1.00;;;;;;5035213;28;20981;-44
2023/03/16 08:29:40;;;;;;;11.03;8.90;;;13.20;1.00;;;;;;5034194;28;20788;-46
2023/03/16 08:32:06;;;;;;;10.33;8.53;;;13.30;1.00;;;;;;5033479;28;20261;-48
2023/03/16 08:34:32;;;;;;;11.60;8.70;;;13.30;1.00;;;;;;5033234;28;20206;-48
2023/03/16 08:36:58;;;;;;;8.90;8.00;;;13.60;1.00;;;;;;5032705;28;20735;-44
2023/03/16 08:39:24;;;;;;;9.77;8.17;;;13.80;1.00;;;;;;5033976;28;20292;-44
2023/03/16 08:41:51;;;;;;;9.27;8.47;;;14.20;1.00;;;;;;5032723;28;20831;-46
2023/03/16 08:44:16;;;;;;;9.37;8.47;;;14.50;1.00;;;;;;5033203;28;20421;-46
2023/03/16 08:46:43;;;;;;;5.60;5.10;;;14.80;1.00;;;;;;5034370;28;20503;-45
2023/03/16 08:49:09;;;;;;;7.03;6.37;;;15.10;1.00;;;;;;5035699;28;20205;-46
2023/03/16 08:51:35;;;;;;;8.60;7.60;;;16.20;1.00;;;;;;5033162;28;20914;-46
2023/03/16 08:54:01;;;;;;;8.57;7.77;;;17.10;1.00;;;;;;5034453;28;20418;-46
2023/03/16 08:56:29;;;;;;;8.17;7.40;;;17.60;1.00;;;;;;5031880;28;20740;-44
2023/03/16 08:58:56;;;;;;;10.37;9.07;;;17.40;1.00;;;;;;5034787;28;20221;-47
2023/03/16 09:01:22;;;;;;;7.50;6.90;;;16.90;1.00;;;;;;5034650;28;20667;-44
2023/03/16 09:03:50;;;;;;;8.97;8.27;;;16.20;1.00;;;;;;5035008;28;20468;-45
2023/03/16 09:06:16;;;;;;;8.57;7.77;;;16.10;1.00;;;;;;5034277;28;20874;-47
2023/03/16 09:08:44;;;;;;;9.00;8.20;;;16.40;1.00;;;;;;5034108;28;20835;-45
2023/03/16 09:11:13;;;;;;;7.67;6.90;;;16.20;1.00;;;;;;5033053;28;20478;-44
2023/03/16 09:13:39;;;;;;;7.60;6.83;;;16.10;1.00;;;;;;5029477;28;20468;-45
2023/03/16 09:16:06;;;;;;;7.47;6.77;;;16.10;1.00;;;;;;5034775;28;20425;-47
2023/03/16 09:18:34;;;;;;;8.03;7.23;;;16.40;1.00;;;;;;5035185;28;20811;-46
2023/03/16 09:21:01;;;;;;;6.90;6.17;;;16.60;1.00;;;;;;5036357;28;20532;-44
2023/03/16 09:23:28;;;;;;;6.50;6.00;;;17.00;1.00;;;;;;5033467;28;20685;-45
2023/03/16 09:26:00;;;;;;;9.00;6.43;;;17.60;1.00;;;;;;5033859;28;20432;-47
2023/03/16 09:28:27;;;;;;;6.80;6.13;;;18.00;1.00;;;;;;5033442;28;20412;-45
2023/03/16 09:30:54;;;;;;;7.20;6.50;;;18.50;1.00;;;;;;5033239;28;20469;-45
2023/03/16 09:33:20;;;;;;;6.80;6.20;;;19.10;1.00;;;;;;5035464;28;20426;-44
2023/03/16 09:35:46;;;;;;;6.90;6.20;;;19.40;1.00;;;;;;5035094;28;20527;-46
2023/03/16 09:38:13;;;;;;;6.80;6.20;;;20.20;1.00;;;;;;5034028;28;20437;-47
2023/03/16 09:40:40;;;;;;;6.27;5.53;;;19.90;1.00;;;;;;5035793;28;20527;-48
2023/03/16 09:43:11;;;;;;;6.23;5.63;;;19.20;1.00;;;;;;5034977;28;20201;-46
2023/03/16 09:46:19;;;;;;;6.10;5.60;;;18.80;1.00;;;;;;5035112;28;20531;-45
2023/03/16 09:48:46;;;;;;;6.70;6.10;;;17.60;1.00;;;;;;5033083;28;20447;-44
2023/03/16 09:51:32;;;;;;;6.13;5.53;;;16.80;1.00;;;;;;5034499;28;20479;-45
2023/03/16 09:54:01;;;;;;;5.80;5.30;;;15.90;1.00;;;;;;5011601;28;20422;-46
2023/03/16 09:56:35;;;;;;;5.93;5.40;;;14.90;1.00;;;;;;5032966;28;20545;-49
2023/03/16 09:59:05;;;;;;;5.90;5.30;;;14.00;1.00;;;;;;5034243;28;20409;-45
2023/03/16 10:01:41;;;;;;;6.67;5.90;;;14.40;1.00;;;;;;5031076;28;20626;-46
2023/03/16 10:04:44;;;;;;;6.77;5.70;;;14.20;1.00;;;;;;5034117;28;20435;-46
2023/03/16 10:07:11;;;;;;;6.03;5.53;;;14.20;1.00;;;;;;5034458;28;20432;-44
2023/03/16 10:09:48;;;;;;;5.13;4.70;;;14.70;1.00;;;;;;5033590;28;20768;-44
2023/03/16 10:12:14;;;;;;;5.40;4.87;;;15.00;1.00;;;;;;5035435;28;20559;-48
2023/03/16 10:15:17;;;;;;;5.30;4.80;;;15.10;1.00;;;;;;5033155;28;20542;-43
2023/03/16 10:17:51;;;;;;;7.37;4.67;;;15.00;1.00;;;;;;5035642;28;20776;-46
2023/03/16 10:20:21;;;;;;;4.93;3.90;;;15.30;1.00;;;;;;5035813;28;20408;-44
2023/03/16 10:22:49;;;;;;;6.03;3.83;;;16.00;1.00;;;;;;5033681;28;20413;-44
2023/03/16 10:25:26;;;;;;;4.73;4.00;;;16.60;1.00;;;;;;5030461;28;20425;-45
2023/03/16 10:27:53;;;;;;;4.67;4.17;;;16.80;1.00;;;;;;5032630;28;20772;-46
2023/03/16 10:30:27;;;;;;;4.40;4.00;;;16.90;1.00;;;;;;5032444;28;20409;-44
2023/03/16 10:32:54;;;;;;;5.20;4.07;;;17.40;1.00;;;;;;5032393;28;20755;-46
2023/03/16 10:35:57;;;;;;;4.57;4.17;;;18.30;1.00;;;;;;5031383;28;20439;-47
2023/03/16 10:38:39;;;;;;;4.40;4.00;;;19.10;1.00;;;;;;5032575;28;20499;-44
2023/03/16 10:41:30;;;;;;;4.40;4.00;;;19.60;1.00;;;;;;5031367;28;20941;-45
2023/03/16 10:43:56;;;;;;;5.00;4.43;;;20.00;1.00;;;;;;5025751;28;20846;-46
2023/03/16 10:46:26;;;;;;;4.97;4.47;;;20.20;1.00;;;;;;5030829;28;20812;-49
2023/03/16 10:48:58;;;;;;;4.90;4.50;;;20.00;1.00;;;;;;5029373;28;20532;-45
2023/03/16 10:51:26;;;;;;;4.10;3.80;;;20.30;1.00;;;;;;5033117;28;20461;-41
2023/03/16 10:53:53;;;;;;;3.47;2.93;;;21.10;1.00;;;;;;5029911;28;20586;-47
2023/03/16 10:56:22;;;;;;;5.30;4.80;;;22.70;1.00;;;;;;5031577;28;20822;-46
2023/03/16 10:58:48;;;;;;;4.97;3.80;;;24.60;1.00;;;;;;5032847;28;20421;-45
2023/03/16 11:01:27;;;;;;;3.67;2.47;;;26.50;1.00;;;;;;5032959;28;20424;-44
2023/03/16 11:03:55;;;;;;;4.60;2.23;;;27.90;1.00;;;;;;5032706;28;20182;-42
2023/03/16 11:06:30;;;;;;;3.57;2.90;;;29.20;1.00;;;;;;5034274;28;20927;-44
2023/03/16 11:09:12;;;;;;;3.33;2.87;;;30.30;1.00;;;;;;5033077;28;20448;-43
2023/03/16 11:11:37;;;;;;;3.80;2.37;;;31.40;1.00;;;;;;5032477;28;20442;-44
2023/03/16 11:14:11;;;;;;;6.83;2.90;;;32.40;1.00;;;;;;5033498;28;20520;-47
2023/03/16 11:17:09;;;;;;;5.53;2.30;;;32.90;1.00;;;;;;5032941;28;20178;-43
2023/03/16 11:19:58;;;;;;;3.30;2.57;;;33.90;1.00;;;;;;5018712;28;20911;-46
2023/03/16 11:22:24;;;;;;;6.87;2.43;;;34.70;1.00;;;;;;5030231;28;20429;-48
2023/03/16 11:24:53;;;;;;;3.87;2.40;;;35.60;1.00;;;;;;5031169;28;20440;-47
2023/03/16 11:27:26;;;;;;;3.30;2.70;;;36.20;1.00;;;;;;5031329;28;20445;-48
2023/03/16 11:30:34;;;;;;;4.37;2.20;;;36.60;1.00;;;;;;5030478;28;20998;-46
2023/03/16 11:33:00;;;;;;;1.80;1.60;;;36.80;1.00;;;;;;4992748;28;20487;-46
2023/03/16 11:35:35;;;;;;;2.23;1.93;;;37.10;1.00;;;;;;5031672;28;20757;-47
2023/03/16 11:38:14;;;;;;;2.40;1.73;;;37.40;1.00;;;;;;5035817;28;20741;-45
2023/03/16 11:41:01;;;;;;;2.30;2.10;;;37.90;1.00;;;;;;5037282;28;20463;-47
2023/03/16 11:43:48;;;;;;;2.37;2.17;;;38.30;1.00;;;;;;5038370;28;20885;-47
2023/03/16 11:46:26;;;;;;;2.07;1.80;;;38.60;1.00;;;;;;5038333;28;20823;-45
2023/03/16 11:49:28;;;;;;;2.40;2.00;;;38.90;1.00;;;;;;5036571;28;20409;-46
2023/03/16 11:52:04;;;;;;;2.00;1.63;;;39.00;1.00;;;;;;5037020;28;20885;-45
2023/03/16 11:55:09;;;;;;;2.53;2.20;;;39.30;1.00;;;;;;5035119;28;20749;-45
2023/03/16 11:58:01;;;;;;;2.27;1.70;;;39.00;1.00;;;;;;5035239;28;20854;-45
2023/03/16 12:00:55;;;;;;;2.40;1.90;;;38.90;1.00;;;;;;5031521;28;20921;-44
2023/03/16 12:03:53;;;;;;;2.00;1.80;;;38.70;1.00;;;;;;5035572;28;20424;-47
2023/03/16 12:06:28;;;;;;;2.07;1.70;;;38.40;1.00;;;;;;5032808;28;20704;-47
2023/03/16 12:08:56;;;;;;;2.53;1.90;;;37.10;1.00;;;;;;5033060;28;20531;-47
2023/03/16 12:11:29;;;;;;;2.00;1.60;;;36.70;1.00;;;;;;5031977;28;20735;-46
2023/03/16 12:14:09;;;;;;;2.37;2.13;;;36.40;1.00;;;;;;5029971;28;20905;-46
2023/03/16 12:16:45;;;;;;;2.03;1.83;;;36.30;1.00;;;;;;5031068;28;20511;-47
2023/03/16 12:19:16;;;;;;;3.53;2.03;;;36.70;1.00;;;;;;5035916;28;20404;-47
2023/03/16 12:21:44;;;;;;;2.60;1.97;;;37.10;1.00;;;;;;5035654;28;20496;-45
2023/03/16 12:24:18;;;;;;;2.90;1.70;;;36.70;1.00;;;;;;5033986;28;20425;-43
2023/03/16 12:26:44;;;;;;;2.03;1.80;;;35.90;1.00;;;;;;5034264;28;20427;-46
2023/03/16 12:29:34;;;;;;;2.50;1.77;;;34.80;1.00;;;;;;5034721;28;20674;-43
2023/03/16 12:32:19;;;;;;;2.10;1.70;;;33.80;1.00;;;;;;5032148;28;20500;-44
2023/03/16 12:34:45;;;;;;;1.87;1.73;;;32.90;1.00;;;;;;5034337;28;20428;-44
2023/03/16 12:37:22;;;;;;;2.90;1.93;;;32.40;1.00;;;;;;5029877;28;20417;-46
2023/03/16 12:40:07;;;;;;;1.93;1.60;;;32.40;1.00;;;;;;5032296;28;20182;-43
2023/03/16 12:43:15;;;;;;;3.20;2.00;;;32.50;1.00;;;;;;5036310;28;20451;-43
2023/03/16 12:46:00;;;;;;;2.63;2.00;;;32.10;1.00;;;;;;4996871;28;20753;-44
2023/03/16 12:48:28;;;;;;;2.27;1.70;;;31.90;1.00;;;;;;5035753;28;20739;-43
2023/03/16 12:50:59;;;;;;;1.60;1.37;;;32.90;1.00;;;;;;5032757;28;20551;-44
2023/03/16 12:53:39;;;;;;;2.10;1.50;;;34.50;1.00;;;;;;5029437;28;20471;-44
2023/03/16 12:56:08;;;;;;;1.97;1.33;;;35.80;1.00;;;;;;5033002;28;20888;-46
2023/03/16 12:58:35;;;;;;;2.30;1.80;;;36.80;1.00;;;;;;5031442;28;20417;-45
2023/03/16 13:01:02;;;;;;;3.90;1.93;;;38.30;1.00;;;;;;5033672;28;20724;-44